Airfield :
LOGIN :

Register | Disclaimer

   EN    FR    IT 

 










Legend :    VFR   Marginal VFR   IFR   Intensive IFR   Very Intensive IFR
Visi :
Ceiling :
>= 8 km
>= 3000ft
5 to 8 km
1000 to 3000 ft
1500m to 5 km
500 to 1000 ft
800 to 1500m
200 to 500 ft
< 800m
< 200 ft
Symbols :   Thunderstorms  Fog  Heavy snow  Heavy precipitations  Wind > 20 kt
SIGMETs :     Misc.  Thunderstorms  Icing  Turbulence  Mountain Waves  Volcanic Ashes






- Airport Elevation : 1548 ft


LKNA - Náměšť Air Base

CURRENT METAR :
  • 141030Z 34015KT 9999 BKN030 04/M03 Q1022 NOSIG RMK BLU BLU

EXPIRED METARs :
  • 141000Z 32018KT 9999 BKN027 BKN093 04/M03 Q1022 NOSIG
  • 140930Z 33014KT 9999 SCT018 BKN096 03/M01 Q1022 NOSIG RMK BLU BLU
  • 140900Z 33014KT 9999 SCT016 BKN140 04/M00 Q1022 NOSIG
  • 140830Z 33015KT 9999 BKN016 BKN140 03/M01 Q1022 NOSIG RMK WHT WHT
  • 140800Z 33013KT 9999 BKN017 OVC080 02/M01 Q1022 NOSIG RMK WHT WHT

TAF TAF LKNA
Valid from the 14 at 06:00 until the 15 at 06:00 UTC


140500Z 1406/1506 33012KT 9999 BKN045
TEMPO 1406/1418 33016G28KT 6000 SHRASN BKN020
PROB30
TEMPO 1406/1418 3000 SHSN BKN010 OVC015
BECMG 1419/1421 CAVOK



MET'MAP, your aeronautical weather chart ! - Copyright ORBIFLY December 2007 - Disclaimer

ORBIFLY MET'MAP TEAM :

Programming & Development : Alexandra Zaïnal
Concept & original design : Baudouin d'Aumeries
Assistance for programming : Marc-Olivier Méhu
Technical & hardware support : Manuel Goepfert

Contact : metmap@orbifly.com




SOURCES & CREDITS :

   NOAA